Portada
METAR-TAF:

METAR-TAF

Aeropuertos :

Aeropuerto de Wemindji

Wemindji, Quebec, Canadá

latitud: 53-00-39N, longitud: 078-49-49W, altitud: 15 m

Observación

El informe se hizo hace 5 horas y 37 minutos, a las 21:00 UTC
Viento 5 kt del sureste, variando entre este-sureste y sur
Temperatura -14°C
Humedad 78%
Presión 1020 hPa
Visibilidad: 24.1 km
Nubes dispersas a una altura de 30000 ft

METAR: CYNC 122100Z 14005KT 120V190 15SM SCT300 M14/M17 A3013 RMK CI3 LAST STFD OBS/NEXT 131400Z SLP208

Hora: 21:37 (02:37 UTC)


TAF: falta

Observaciones y pronósticos meteorológicos de más de 4000 aeropuertos (mensajes METAR y TAF).

Los puntos amarillos y rojos representan las estaciones disponibles.

Ponga el ratón en el punto deseado para ver el nombre de la estación.

Haga clic para ver las observaciones y los pronósticos meteorológicos.

Para cambiar el mapa : haga clic en los botones verdes con una cruz de color negro para hacer un zoom, en el botón verde con un guión para alejar o en las flechas verdes para mapas adyacentes.


METAR-TAF: